createdAt,value
2022-08-06T00:00:02.323Z,100368.16
2022-08-06T00:02:25.747Z,100392.06
2022-08-06T00:05:00.457Z,100395.72
2022-08-06T00:07:28.620Z,100403.31
2022-08-06T00:10:00.859Z,100391.78
2022-08-06T00:12:33.237Z,100400.00
2022-08-06T00:15:12.385Z,100391.00
2022-08-06T00:17:42.239Z,100352.69
2022-08-06T00:20:10.619Z,100399.66
2022-08-06T00:22:37.719Z,100380.06
2022-08-06T00:25:05.429Z,100401.31
2022-08-06T00:27:38.874Z,100387.97
2022-08-06T00:30:18.423Z,100423.63
2022-08-06T00:32:51.843Z,100377.34
2022-08-06T00:35:24.032Z,100423.94
2022-08-06T00:37:57.947Z,100396.19
2022-08-06T00:40:31.361Z,100391.19
2022-08-06T00:43:06.249Z,100377.03
2022-08-06T00:45:38.070Z,100426.34
2022-08-06T00:48:37.005Z,100387.25
2022-08-06T00:51:00.896Z,100374.84
2022-08-06T00:53:33.847Z,100402.00
2022-08-06T00:56:08.152Z,100397.09
2022-08-06T00:58:39.973Z,100428.94
2022-08-06T01:01:16.736Z,100431.88
2022-08-06T01:03:51.138Z,100449.34
2022-08-06T01:06:55.440Z,100438.09
2022-08-06T01:09:08.756Z,100412.44
2022-08-06T01:11:38.648Z,100444.75
2022-08-06T01:14:09.770Z,100453.34
2022-08-06T01:16:58.434Z,100442.88
2022-08-06T01:22:01.499Z,100438.34
2022-08-06T01:23:44.761Z,100444.41
2022-08-06T01:26:34.926Z,100445.75
2022-08-06T01:29:36.211Z,100440.34
2022-08-06T01:32:07.295Z,100461.09
2022-08-06T01:34:47.302Z,100414.47
2022-08-06T01:37:39.747Z,100431.06
2022-08-06T01:40:13.785Z,100434.13
2022-08-06T01:42:44.139Z,100403.69
2022-08-06T01:45:14.724Z,100409.06
2022-08-06T01:47:54.578Z,100432.97
2022-08-06T01:50:28.739Z,100439.41
2022-08-06T01:53:00.400Z,100440.59
2022-08-06T01:55:56.643Z,100440.59
2022-08-06T01:58:27.676Z,100443.75
2022-08-06T02:00:58.021Z,100432.16
2022-08-06T02:03:50.177Z,100441.16
2022-08-06T02:06:49.555Z,100434.84
2022-08-06T02:09:23.798Z,100423.00
2022-08-06T02:12:18.613Z,100421.44
2022-08-06T02:15:05.664Z,100446.81
2022-08-06T02:17:54.142Z,100444.81
2022-08-06T02:20:36.576Z,100448.06
2022-08-06T02:23:08.411Z,100454.63
2022-08-06T02:25:41.213Z,100456.72
2022-08-06T02:28:10.589Z,100438.16
2022-08-06T02:30:42.578Z,100446.69
2022-08-06T02:33:11.271Z,100469.25
2022-08-06T02:35:51.852Z,100462.91
2022-08-06T02:38:23.535Z,100425.00
2022-08-06T02:41:01.577Z,100453.03
2022-08-06T02:43:38.344Z,100435.44
2022-08-06T02:46:20.307Z,100440.69
2022-08-06T02:48:52.074Z,100456.50
2022-08-06T02:51:43.901Z,100405.66
2022-08-06T02:54:21.180Z,100456.72
2022-08-06T02:56:55.877Z,100425.81
2022-08-06T02:59:27.347Z,100435.13
2022-08-06T03:02:12.120Z,100445.56
2022-08-06T03:04:56.474Z,100447.25
2022-08-06T03:07:30.604Z,100448.41
2022-08-06T03:10:00.020Z,100431.81
2022-08-06T03:12:29.914Z,100430.19
2022-08-06T03:15:07.270Z,100419.75
2022-08-06T03:17:41.524Z,100459.19
2022-08-06T03:20:17.518Z,100401.06
2022-08-06T03:22:48.981Z,100443.91
2022-08-06T03:25:17.489Z,100468.59
2022-08-06T03:27:47.232Z,100449.75
2022-08-06T03:30:33.041Z,100470.13
2022-08-06T03:33:07.866Z,100476.38
2022-08-06T03:35:54.887Z,100444.38
2022-08-06T03:38:29.308Z,100476.91
2022-08-06T03:40:58.615Z,100486.41
2022-08-06T03:43:27.556Z,100474.50
2022-08-06T03:46:01.911Z,100477.72
2022-08-06T03:48:38.476Z,100453.72
2022-08-06T03:51:17.445Z,100485.59
2022-08-06T03:53:59.392Z,100495.34
2022-08-06T03:56:30.319Z,100445.03
2022-08-06T03:59:04.402Z,100490.25
2022-08-06T04:01:43.418Z,100481.81
2022-08-06T04:04:27.047Z,100494.41
2022-08-06T04:07:00.551Z,100481.06
2022-08-06T04:09:33.445Z,100471.63
2022-08-06T04:12:42.712Z,100486.44
2022-08-06T04:15:08.415Z,100489.13
2022-08-06T04:17:40.714Z,100521.91
2022-08-06T04:20:12.294Z,100526.59
2022-08-06T04:23:06.208Z,100520.19
2022-08-06T04:25:37.241Z,100533.38
2022-08-06T04:28:06.825Z,100536.28
2022-08-06T04:30:35.578Z,100485.03
2022-08-06T04:33:09.006Z,100543.81
2022-08-06T04:36:04.545Z,100518.28
2022-08-06T04:38:31.265Z,100513.38
2022-08-06T04:41:03.452Z,100465.66
2022-08-06T04:43:38.757Z,100506.34
2022-08-06T04:46:20.867Z,100498.06
2022-08-06T04:48:52.288Z,100541.66
2022-08-06T04:52:35.207Z,100533.69
2022-08-06T04:54:12.159Z,100545.56
2022-08-06T04:56:42.382Z,100554.53
2022-08-06T04:59:18.068Z,100537.47
2022-08-06T05:01:57.446Z,100523.09
2022-08-06T05:04:32.626Z,100552.72
2022-08-06T05:07:52.582Z,100572.75
2022-08-06T05:10:17.112Z,100561.84
2022-08-06T05:12:47.526Z,100572.13
2022-08-06T05:15:41.630Z,100582.00
2022-08-06T05:19:15.974Z,100551.50
2022-08-06T05:21:05.761Z,100576.19
2022-08-06T05:23:46.624Z,100580.44
2022-08-06T05:26:25.002Z,100576.50
2022-08-06T05:28:55.930Z,100581.00
2022-08-06T05:31:38.995Z,100583.41
2022-08-06T05:34:12.128Z,100589.59
2022-08-06T05:36:39.407Z,100592.78
2022-08-06T05:39:09.277Z,100591.06
2022-08-06T05:41:59.831Z,100582.78
2022-08-06T05:44:29.817Z,100590.97
2022-08-06T05:47:05.738Z,100567.31
2022-08-06T05:49:58.807Z,100593.66
2022-08-06T05:53:07.494Z,100595.56
2022-08-06T05:56:07.230Z,100607.13
2022-08-06T05:58:54.494Z,100608.34
2022-08-06T06:01:24.771Z,100580.69
2022-08-06T06:03:56.082Z,100608.19
2022-08-06T06:06:23.955Z,100590.91
2022-08-06T06:08:57.676Z,100614.22
2022-08-06T06:11:46.960Z,100580.25
2022-08-06T06:14:38.646Z,100581.06
2022-08-06T06:17:23.155Z,100620.91
2022-08-06T06:20:16.460Z,100620.88
2022-08-06T06:22:57.822Z,100613.50
2022-08-06T06:25:43.528Z,100600.16
2022-08-06T06:28:38.455Z,100626.09
2022-08-06T06:32:06.839Z,100621.22
2022-08-06T06:34:26.824Z,100622.63
2022-08-06T06:37:04.580Z,100614.69
2022-08-06T06:40:17.950Z,100617.09
2022-08-06T06:43:02.016Z,100605.28
2022-08-06T06:46:17.441Z,100615.53
2022-08-06T06:48:41.613Z,100601.28
2022-08-06T06:51:40.753Z,100626.31
2022-08-06T06:54:09.392Z,100622.59
2022-08-06T06:56:47.780Z,100628.47
2022-08-06T06:59:56.033Z,100568.44
2022-08-06T07:02:20.940Z,100627.75
2022-08-06T07:04:52.340Z,100631.47
2022-08-06T07:07:23.405Z,100626.47
2022-08-06T07:09:53.544Z,100627.84
2022-08-06T07:12:33.942Z,100636.75
2022-08-06T07:15:02.992Z,100637.06
2022-08-06T07:17:45.087Z,100633.97
2022-08-06T07:20:20.535Z,100626.66
2022-08-06T07:24:08.241Z,100625.19
2022-08-06T07:25:53.853Z,100588.97
2022-08-06T07:28:27.788Z,100637.31
2022-08-06T07:31:09.883Z,100609.06
2022-08-06T07:33:59.966Z,100608.56
2022-08-06T07:36:32.537Z,100641.25
2022-08-06T07:39:08.534Z,100635.34
2022-08-06T07:41:50.061Z,100628.63
2022-08-06T07:44:29.402Z,100627.72
2022-08-06T07:46:59.805Z,100627.81
2022-08-06T07:50:00.293Z,100643.88
2022-08-06T07:52:26.755Z,100646.44
2022-08-06T07:54:57.643Z,100647.78
2022-08-06T07:57:26.107Z,100629.66
2022-08-06T08:00:00.115Z,100610.56
2022-08-06T08:02:30.100Z,100643.03
2022-08-06T08:05:16.813Z,100632.31
2022-08-06T08:07:53.911Z,100630.75
2022-08-06T08:10:28.922Z,100633.38
2022-08-06T08:12:58.011Z,100615.47
2022-08-06T08:15:32.282Z,100631.00
2022-08-06T08:17:59.261Z,100618.03
2022-08-06T08:20:34.071Z,100637.34
2022-08-06T08:23:07.768Z,100599.09
2022-08-06T08:25:40.085Z,100624.84
2022-08-06T08:28:15.131Z,100605.09
2022-08-06T08:30:47.906Z,100623.09
2022-08-06T08:33:21.116Z,100607.09
2022-08-06T08:35:50.054Z,100579.16
2022-08-06T08:38:32.372Z,100624.56
2022-08-06T08:41:09.718Z,100623.22
2022-08-06T08:44:00.471Z,100614.25
2022-08-06T08:46:38.006Z,100621.69
2022-08-06T08:49:19.336Z,100618.56
2022-08-06T08:51:47.905Z,100616.19
2022-08-06T08:54:22.043Z,100621.38
2022-08-06T08:57:10.346Z,100595.84
2022-08-06T08:59:57.857Z,100609.00
2022-08-06T09:02:26.141Z,100613.16
2022-08-06T09:04:54.567Z,100618.34
2022-08-06T09:07:35.617Z,100597.69
2022-08-06T09:10:16.381Z,100589.47
2022-08-06T09:12:45.203Z,100618.28
2022-08-06T09:15:14.650Z,100614.44
2022-08-06T09:18:25.055Z,100602.47
2022-08-06T09:20:35.139Z,100603.50
2022-08-06T09:23:02.481Z,100600.88
2022-08-06T09:25:41.171Z,100617.78
2022-08-06T09:28:31.294Z,100609.31
2022-08-06T09:31:21.979Z,100614.81
2022-08-06T09:34:30.314Z,100609.91
2022-08-06T09:36:47.628Z,100603.41
2022-08-06T09:39:22.923Z,100612.31
2022-08-06T09:41:58.935Z,100609.44
2022-08-06T09:44:37.578Z,100550.81
2022-08-06T09:47:16.470Z,100600.84
2022-08-06T09:50:00.563Z,100609.31
2022-08-06T09:52:27.952Z,100596.41
2022-08-06T09:54:55.060Z,100591.19
2022-08-06T09:57:35.820Z,100578.47
2022-08-06T10:00:33.444Z,100599.63
2022-08-06T10:04:03.989Z,100593.25
2022-08-06T10:06:06.805Z,100568.78
2022-08-06T10:08:39.023Z,100590.88
2022-08-06T10:11:07.285Z,100589.50
2022-08-06T10:13:43.747Z,100593.28
2022-08-06T10:16:17.986Z,100587.59
2022-08-06T10:18:54.792Z,100595.41
2022-08-06T10:21:33.316Z,100597.31
2022-08-06T10:24:09.906Z,100592.31
2022-08-06T10:26:36.873Z,100596.84
2022-08-06T10:29:06.819Z,100594.28
2022-08-06T10:31:35.471Z,100592.84
2022-08-06T10:34:17.036Z,100573.53
2022-08-06T10:36:52.977Z,100600.25
2022-08-06T10:40:07.937Z,100580.38
2022-08-06T10:42:21.779Z,100595.72
2022-08-06T10:44:51.673Z,100583.09
2022-08-06T10:48:58.774Z,100594.97
2022-08-06T10:50:26.068Z,100587.63
2022-08-06T10:52:59.476Z,100559.31
2022-08-06T10:55:37.569Z,100584.31
2022-08-06T10:58:13.131Z,100564.63
2022-08-06T11:00:44.833Z,100585.56
2022-08-06T11:04:14.259Z,100582.31
2022-08-06T11:08:10.209Z,100582.69
2022-08-06T11:10:27.199Z,100583.34
2022-08-06T11:13:12.337Z,100539.19
2022-08-06T11:15:42.851Z,100561.09
2022-08-06T11:18:16.184Z,100552.41
2022-08-06T11:20:53.713Z,100552.97
2022-08-06T11:23:52.229Z,100560.47
2022-08-06T11:26:07.557Z,100559.09
2022-08-06T11:28:34.402Z,100564.09
2022-08-06T11:31:04.199Z,100552.63
2022-08-06T11:33:34.035Z,100546.44
2022-08-06T11:36:03.663Z,100553.50
2022-08-06T11:38:51.115Z,100548.84
2022-08-06T11:41:57.530Z,100539.19
2022-08-06T11:44:31.112Z,100546.50
2022-08-06T11:47:22.963Z,100535.97
2022-08-06T11:50:02.117Z,100547.00
2022-08-06T11:52:34.243Z,100549.44
2022-08-06T11:55:08.419Z,100532.88
2022-08-06T11:57:41.998Z,100509.63
2022-08-06T12:00:20.010Z,100475.03
2022-08-06T12:02:55.844Z,100507.66
2022-08-06T12:05:23.938Z,100517.00
2022-08-06T12:08:38.860Z,100511.78
2022-08-06T12:11:25.232Z,100513.75
2022-08-06T12:13:57.840Z,100512.56
2022-08-06T12:16:41.170Z,100507.69
2022-08-06T12:19:19.960Z,100503.25
2022-08-06T12:21:56.796Z,100474.16
2022-08-06T12:24:45.506Z,100499.91
2022-08-06T12:27:24.921Z,100485.47
2022-08-06T12:29:59.881Z,100484.22
2022-08-06T12:32:36.096Z,100494.41
2022-08-06T12:35:50.373Z,100487.97
2022-08-06T12:38:18.329Z,100462.47
2022-08-06T12:41:10.836Z,100484.78
2022-08-06T12:43:56.535Z,100427.53
2022-08-06T12:46:29.612Z,100446.16
2022-08-06T12:49:01.429Z,100470.50
2022-08-06T12:51:30.564Z,100462.00
2022-08-06T12:54:03.207Z,100440.22
2022-08-06T12:56:36.276Z,100459.38
2022-08-06T12:59:12.798Z,100455.59
2022-08-06T13:02:07.645Z,100458.00
2022-08-06T13:04:38.197Z,100454.59
2022-08-06T13:07:09.090Z,100448.88
2022-08-06T13:09:56.098Z,100437.88
2022-08-06T13:12:29.156Z,100423.03
2022-08-06T13:15:18.772Z,100454.66
2022-08-06T13:18:41.623Z,100425.59
2022-08-06T13:20:59.780Z,100442.66
2022-08-06T13:23:55.047Z,100457.47
2022-08-06T13:26:26.820Z,100439.50
2022-08-06T13:30:34.536Z,100440.44
2022-08-06T13:32:33.290Z,100430.31
2022-08-06T13:35:03.656Z,100439.78
2022-08-06T13:38:06.253Z,100434.59
2022-08-06T13:40:41.883Z,100445.38
2022-08-06T13:43:39.603Z,100437.88
2022-08-06T13:46:11.605Z,100442.38
2022-08-06T13:48:49.470Z,100421.38
2022-08-06T13:51:22.837Z,100435.06
2022-08-06T13:53:57.464Z,100430.56
2022-08-06T13:56:28.696Z,100415.59
2022-08-06T13:58:56.687Z,100425.81
2022-08-06T14:01:23.552Z,100426.53
2022-08-06T14:03:50.629Z,100408.38
2022-08-06T14:06:20.116Z,100399.94
2022-08-06T14:08:50.256Z,100414.81
2022-08-06T14:11:17.211Z,100407.88
2022-08-06T14:13:48.016Z,100408.25
2022-08-06T14:16:15.122Z,100408.56
2022-08-06T14:18:47.870Z,100400.81
2022-08-06T14:21:27.897Z,100385.91
2022-08-06T14:24:01.087Z,100411.63
2022-08-06T14:26:28.655Z,100416.38
2022-08-06T14:30:27.126Z,100402.25
2022-08-06T14:31:53.707Z,100401.81
2022-08-06T14:34:35.083Z,100399.88
2022-08-06T14:37:14.484Z,100397.38
2022-08-06T14:39:58.108Z,100406.84
2022-08-06T14:42:47.329Z,100392.13
2022-08-06T14:45:21.674Z,100386.63
2022-08-06T14:47:59.020Z,100380.97
2022-08-06T14:50:38.106Z,100373.34
2022-08-06T14:53:16.213Z,100389.44
2022-08-06T14:55:58.607Z,100387.47
2022-08-06T14:58:30.871Z,100357.09
2022-08-06T15:00:58.120Z,100375.25
2022-08-06T15:03:27.752Z,100379.31
2022-08-06T15:06:04.943Z,100376.56
2022-08-06T15:08:34.219Z,100379.22
2022-08-06T15:11:06.259Z,100368.84
2022-08-06T15:13:41.399Z,100373.06
2022-08-06T15:16:11.164Z,100368.31
2022-08-06T15:19:19.689Z,100373.38
2022-08-06T15:21:50.876Z,100368.00
2022-08-06T15:24:18.747Z,100351.81
2022-08-06T15:26:49.064Z,100362.66
2022-08-06T15:29:16.897Z,100347.09
2022-08-06T15:31:45.452Z,100346.28
2022-08-06T15:34:13.688Z,100360.19
2022-08-06T15:36:59.411Z,100375.56
2022-08-06T15:39:53.333Z,100369.06
2022-08-06T15:42:20.286Z,100348.28
2022-08-06T15:44:47.100Z,100329.66
2022-08-06T15:47:15.217Z,100339.72
2022-08-06T15:50:03.614Z,100361.88
2022-08-06T15:52:32.863Z,100349.91
2022-08-06T15:55:15.446Z,100356.06
2022-08-06T15:58:04.347Z,100360.53
2022-08-06T16:00:36.667Z,100345.75
2022-08-06T16:03:08.701Z,100358.22
2022-08-06T16:06:12.197Z,100357.81
2022-08-06T16:08:35.311Z,100344.09
2022-08-06T16:11:12.391Z,100347.38
2022-08-06T16:13:41.157Z,100339.91
2022-08-06T16:16:20.994Z,100350.13
2022-08-06T16:18:51.713Z,100340.81
2022-08-06T16:21:19.640Z,100345.16
2022-08-06T16:23:55.265Z,100353.03
2022-08-06T16:26:29.765Z,100348.88
2022-08-06T16:29:40.197Z,100324.00
2022-08-06T16:32:07.912Z,100341.50
2022-08-06T16:34:36.473Z,100346.03
2022-08-06T16:37:28.323Z,100338.78
2022-08-06T16:40:00.092Z,100324.72
2022-08-06T16:42:28.528Z,100314.31
2022-08-06T16:45:02.411Z,100337.06
2022-08-06T16:48:20.199Z,100332.56
2022-08-06T16:50:26.213Z,100345.84
2022-08-06T16:54:07.707Z,100342.72
2022-08-06T16:56:13.886Z,100314.59
2022-08-06T16:58:43.598Z,100326.44
2022-08-06T17:02:21.043Z,100333.03
2022-08-06T17:04:21.648Z,100324.94
2022-08-06T17:06:53.774Z,100327.53
2022-08-06T17:09:21.038Z,100319.50
2022-08-06T17:11:58.699Z,100326.06
2022-08-06T17:14:31.962Z,100318.47
2022-08-06T17:17:02.112Z,100327.59
2022-08-06T17:19:33.966Z,100330.16
2022-08-06T17:22:06.706Z,100333.50
2022-08-06T17:24:38.176Z,100276.31
2022-08-06T17:27:15.249Z,100334.69
2022-08-06T17:29:49.343Z,100327.34
2022-08-06T17:32:27.728Z,100331.38
2022-08-06T17:35:09.003Z,100322.06
2022-08-06T17:37:44.255Z,100325.97
2022-08-06T17:40:19.877Z,100326.56
2022-08-06T17:43:54.411Z,100330.38
2022-08-06T17:46:25.722Z,100332.16
2022-08-06T17:48:54.017Z,100329.59
2022-08-06T17:51:22.395Z,100301.06
2022-08-06T17:53:54.799Z,100336.44
2022-08-06T17:56:30.507Z,100337.81
2022-08-06T17:59:16.491Z,100345.81
2022-08-06T18:01:46.501Z,100349.75
2022-08-06T18:04:22.551Z,100336.28
2022-08-06T18:06:58.279Z,100336.97
2022-08-06T18:10:11.239Z,100346.28
2022-08-06T18:12:13.171Z,100348.81
2022-08-06T18:14:41.007Z,100330.13
2022-08-06T18:17:16.122Z,100362.19
2022-08-06T18:19:44.621Z,100335.28
2022-08-06T18:22:23.056Z,100353.75
2022-08-06T18:24:53.986Z,100330.97
2022-08-06T18:27:54.505Z,100324.72
2022-08-06T18:30:30.170Z,100360.03
2022-08-06T18:33:03.944Z,100357.53
2022-08-06T18:35:54.570Z,100380.88
2022-08-06T18:38:21.140Z,100346.03
2022-08-06T18:41:00.908Z,100367.44
2022-08-06T18:43:53.710Z,100380.72
2022-08-06T18:47:01.010Z,100371.38
2022-08-06T18:49:06.490Z,100367.28
2022-08-06T18:51:36.909Z,100378.06
2022-08-06T18:54:05.639Z,100385.09
2022-08-06T18:56:33.123Z,100385.38
2022-08-06T18:59:00.822Z,100388.03
2022-08-06T19:01:47.622Z,100371.34
2022-08-06T19:04:20.225Z,100397.13
2022-08-06T19:06:55.794Z,100401.28
2022-08-06T19:09:24.019Z,100403.31
2022-08-06T19:11:52.389Z,100391.19
2022-08-06T19:14:20.155Z,100398.06
2022-08-06T19:16:48.602Z,100417.66
2022-08-06T19:19:46.323Z,100415.06
2022-08-06T19:22:09.709Z,100423.22
2022-08-06T19:24:39.620Z,100415.59
2022-08-06T19:27:08.069Z,100405.84
2022-08-06T19:30:04.031Z,100379.50
2022-08-06T19:32:39.380Z,100429.84
2022-08-06T19:35:07.671Z,100399.88
2022-08-06T19:37:59.837Z,100425.72
2022-08-06T19:40:46.084Z,100433.34
2022-08-06T19:44:29.010Z,100435.44
2022-08-06T19:46:29.683Z,100444.88
2022-08-06T19:48:48.357Z,100439.66
2022-08-06T19:52:02.436Z,100430.53
2022-08-06T19:54:03.618Z,100400.53
2022-08-06T19:56:33.125Z,100404.19
2022-08-06T20:00:56.216Z,100415.81
2022-08-06T20:01:49.889Z,100388.06
2022-08-06T20:04:35.295Z,100439.44
2022-08-06T20:07:11.740Z,100409.72
2022-08-06T20:09:59.838Z,100436.63
2022-08-06T20:12:32.221Z,100419.19
2022-08-06T20:14:59.292Z,100430.44
2022-08-06T20:17:29.740Z,100424.38
2022-08-06T20:20:15.586Z,100426.81
2022-08-06T20:22:44.467Z,100417.34
2022-08-06T20:25:18.735Z,100397.66
2022-08-06T20:29:09.235Z,100435.28
2022-08-06T20:30:34.859Z,100412.19
2022-08-06T20:33:02.073Z,100423.81
2022-08-06T20:35:32.637Z,100408.81
2022-08-06T20:38:07.215Z,100421.78
2022-08-06T20:41:26.430Z,100410.09
2022-08-06T20:44:06.242Z,100421.53
2022-08-06T20:46:09.989Z,100420.75
2022-08-06T20:48:39.150Z,100399.94
2022-08-06T20:51:06.063Z,100420.44
2022-08-06T20:53:37.298Z,100415.28
2022-08-06T20:56:04.559Z,100433.31
2022-08-06T20:58:33.169Z,100412.59
2022-08-06T21:01:00.659Z,100421.50
2022-08-06T21:05:10.357Z,100431.91
2022-08-06T21:06:14.491Z,100424.31
2022-08-06T21:08:50.654Z,100425.94
2022-08-06T21:11:20.430Z,100442.00
2022-08-06T21:13:59.883Z,100438.13
2022-08-06T21:16:34.948Z,100420.69
2022-08-06T21:19:07.083Z,100442.25
2022-08-06T21:21:35.240Z,100431.34
2022-08-06T21:24:04.765Z,100419.38
2022-08-06T21:26:35.367Z,100436.34
2022-08-06T21:29:41.665Z,100438.94
2022-08-06T21:31:57.157Z,100440.41
2022-08-06T21:34:26.002Z,100432.03
2022-08-06T21:36:55.985Z,100419.78
2022-08-06T21:39:24.570Z,100421.84
2022-08-06T21:42:11.822Z,100438.97
2022-08-06T21:44:38.889Z,100406.31
2022-08-06T21:47:07.408Z,100433.69
2022-08-06T21:49:59.094Z,100435.41
2022-08-06T21:52:28.437Z,100453.84
2022-08-06T21:56:35.121Z,100416.19
2022-08-06T21:57:53.176Z,100446.25
2022-08-06T22:00:34.557Z,100456.03
2022-08-06T22:03:06.734Z,100465.66
2022-08-06T22:06:20.226Z,100434.25
2022-08-06T22:08:21.284Z,100458.22
2022-08-06T22:10:52.679Z,100426.97
2022-08-06T22:13:24.212Z,100428.78
2022-08-06T22:15:55.733Z,100440.72
2022-08-06T22:18:28.854Z,100412.41
2022-08-06T22:20:57.510Z,100463.22
2022-08-06T22:23:28.844Z,100446.28
2022-08-06T22:25:59.666Z,100469.41
2022-08-06T22:28:37.812Z,100460.97
2022-08-06T22:31:08.605Z,100443.91
2022-08-06T22:33:58.621Z,100446.19
2022-08-06T22:36:34.593Z,100359.97
2022-08-06T22:39:06.019Z,100389.94
2022-08-06T22:41:42.778Z,100463.69
2022-08-06T22:44:30.972Z,100433.94
2022-08-06T22:47:04.809Z,100453.38
2022-08-06T22:49:36.795Z,100467.03
2022-08-06T22:52:18.931Z,100442.16
2022-08-06T22:54:58.980Z,100408.69
2022-08-06T22:57:27.453Z,100324.44
2022-08-06T23:00:18.373Z,100453.13
2022-08-06T23:02:45.869Z,100427.78
2022-08-06T23:05:18.077Z,100369.41
2022-08-06T23:07:53.652Z,100421.88
2022-08-06T23:10:20.986Z,100383.78
2022-08-06T23:12:50.077Z,100400.19
2022-08-06T23:15:29.969Z,100425.72
2022-08-06T23:18:08.334Z,100429.59
2022-08-06T23:20:42.482Z,100398.88
2022-08-06T23:23:12.033Z,100368.13
2022-08-06T23:26:02.127Z,100443.66
2022-08-06T23:28:28.255Z,100400.75
2022-08-06T23:30:56.185Z,100391.63
2022-08-06T23:33:22.873Z,100428.34
2022-08-06T23:35:50.829Z,100408.59
2022-08-06T23:38:31.854Z,100435.44
2022-08-06T23:41:02.171Z,100430.31
2022-08-06T23:43:34.996Z,100427.63
2022-08-06T23:46:03.739Z,100432.63
2022-08-06T23:48:31.758Z,100380.97
2022-08-06T23:51:04.881Z,100345.91
2022-08-06T23:54:08.965Z,100367.38
2022-08-06T23:56:19.422Z,100374.03
2022-08-06T23:58:49.245Z,100427.69
